^^
Your Local Weather - Clay, NY Station Historical Data
 
Daily Summary for February 19, 2019 Units:  English    Metric   Both
« Previous Day
Next Day »
Daily Weekly Monthly Yearly Custom
  Current: High: Low: Average:
Temperature: 5.4 °F 16.1 °F 5.4 °F 10.1 °F
Dew Point: -0.8 °F 10.7 °F -0.8 °F 3.7 °F
Humidity: 75% 82% 70% 75%
Wind Speed: 0.0mph 1.0mph 0.0mph 0.2mph
Wind Gust: 0.0mph 3.0mph - -
WindCalm - - NW
Pressure: 30.51 in 30.51 in 30.38 in -
Precipitation: 0.00 in      
Historical Graphs
 
 
Tabular Data for February 19, 2019
Time Temperature Dew Point Pressure Wind Wind Speed Wind Gust Humidity Rainfall Rate (Hourly) solar
00:04 16.1 °F 10.7 °F 30.38 in WSW 1.0 mph 1.0 mph 79% 0.00 in 0.00 W/m2
00:08 15.8 °F 10.2 °F 30.39 in Calm   1.0 mph 78% 0.00 in 0.00 W/m2
00:14 15.0 °F 9.4 °F 30.39 in NNW 1.0 mph 3.0 mph 78% 0.00 in 0.00 W/m2
00:18 14.6 °F 9.3 °F 30.39 in NNW 1.0 mph 3.0 mph 79% 0.00 in 0.00 W/m2
00:24 14.2 °F 8.9 °F 30.40 in Calm   1.0 mph 79% 0.00 in 0.00 W/m2
00:28 14.0 °F 9.0 °F 30.40 in Calm   1.0 mph 80% 0.00 in 0.00 W/m2
00:34 13.5 °F 8.5 °F 30.40 in Calm     80% 0.00 in 0.00 W/m2
00:38 13.1 °F 8.1 °F 30.40 in Calm     80% 0.00 in 0.00 W/m2
00:44 12.6 °F 7.6 °F 30.41 in Calm     80% 0.00 in 0.00 W/m2
00:48 12.1 °F 7.1 °F 30.41 in Calm     80% 0.00 in 0.00 W/m2
00:54 11.5 °F 6.5 °F 30.41 in Calm     80% 0.00 in 0.00 W/m2
00:58 11.2 °F 6.5 °F 30.42 in Calm   1.0 mph 81% 0.00 in 0.00 W/m2
01:04 11.8 °F 7.4 °F 30.42 in NNW 1.0 mph 1.0 mph 82% 0.00 in 0.00 W/m2
01:08 12.0 °F 7.3 °F 30.42 in NNW 1.0 mph 1.0 mph 81% 0.00 in 0.00 W/m2
01:14 12.3 °F 7.3 °F 30.43 in Calm   1.0 mph 80% 0.00 in 0.00 W/m2
01:18 12.2 °F 6.9 °F 30.43 in Calm   1.0 mph 79% 0.00 in 0.00 W/m2
01:24 11.9 °F 6.4 °F 30.43 in Calm     78% 0.00 in 0.00 W/m2
01:28 11.9 °F 6.1 °F 30.44 in Calm     77% 0.00 in 0.00 W/m2
01:34 11.9 °F 5.5 °F 30.44 in Calm     75% 0.00 in 0.00 W/m2
01:38 11.7 °F 5.0 °F 30.44 in Calm     74% 0.00 in 0.00 W/m2
01:44 11.5 °F 4.5 °F 30.44 in Calm   2.0 mph 73% 0.00 in 0.00 W/m2
01:48 11.3 °F 4.0 °F 30.45 in NNW 1.0 mph 2.0 mph 72% 0.00 in 0.00 W/m2
01:54 11.3 °F 4.0 °F 30.45 in NNW 1.0 mph 2.0 mph 72% 0.00 in 0.00 W/m2
01:58 11.4 °F 3.8 °F 30.45 in NNW 1.0 mph 2.0 mph 71% 0.00 in 0.00 W/m2
02:04 11.2 °F 3.6 °F 30.46 in Calm   1.0 mph 71% 0.00 in 0.00 W/m2
02:08 11.0 °F 3.4 °F 30.46 in Calm   2.0 mph 71% 0.00 in 0.00 W/m2
02:14 10.8 °F 3.2 °F 30.46 in Calm   1.0 mph 71% 0.00 in 0.00 W/m2
02:18 10.6 °F 3.0 °F 30.47 in Calm   1.0 mph 71% 0.00 in 0.00 W/m2
02:24 10.5 °F 2.6 °F 30.47 in Calm   2.0 mph 70% 0.00 in 0.00 W/m2
02:28 10.5 °F 2.6 °F 30.47 in Calm   2.0 mph 70% 0.00 in 0.00 W/m2
02:34 10.4 °F 2.5 °F 30.47 in Calm     70% 0.00 in 0.00 W/m2
02:38 10.1 °F 2.3 °F 30.47 in Calm     70% 0.00 in 0.00 W/m2
02:44 9.7 °F 1.9 °F 30.47 in Calm     70% 0.00 in 0.00 W/m2
02:48 9.4 °F 1.9 °F 30.48 in Calm     71% 0.00 in 0.00 W/m2
02:54 9.0 °F 1.5 °F 30.48 in Calm     71% 0.00 in 0.00 W/m2
02:58 8.8 °F 1.3 °F 30.48 in Calm     71% 0.00 in 0.00 W/m2
03:04 8.4 °F 1.2 °F 30.48 in Calm     72% 0.00 in 0.00 W/m2
03:08 7.9 °F 0.7 °F 30.49 in Calm     72% 0.00 in 0.00 W/m2
03:14 7.3 °F 0.2 °F 30.48 in Calm     72% 0.00 in 0.00 W/m2
03:18 7.0 °F 0.2 °F 30.48 in Calm     73% 0.00 in 0.00 W/m2
03:24 6.6 °F 0.1 °F 30.48 in Calm     74% 0.00 in 0.00 W/m2
03:28 6.5 °F 0.3 °F 30.48 in Calm     75% 0.00 in 0.00 W/m2
03:34 7.2 °F 0.9 °F 30.49 in NNW 1.0 mph 2.0 mph 75% 0.00 in 0.00 W/m2
03:38 7.4 °F 0.8 °F 30.49 in Calm   2.0 mph 74% 0.00 in 0.00 W/m2
03:44 7.5 °F 0.7 °F 30.49 in Calm     73% 0.00 in 0.00 W/m2
03:48 7.2 °F 0.4 °F 30.49 in Calm     73% 0.00 in 0.00 W/m2
03:54 6.7 °F -0.1 °F 30.49 in Calm     73% 0.00 in 0.00 W/m2
03:58 6.6 °F 0.1 °F 30.49 in Calm     74% 0.00 in 0.00 W/m2
04:04 6.6 °F 0.1 °F 30.49 in Calm     74% 0.00 in 0.00 W/m2
04:08 6.5 °F 0.0 °F 30.49 in Calm     74% 0.00 in 0.00 W/m2
04:14 6.2 °F -0.6 °F 30.50 in Calm     73% 0.00 in 0.00 W/m2
04:18 6.1 °F -0.4 °F 30.50 in Calm     74% 0.00 in 0.00 W/m2
04:24 5.9 °F -0.6 °F 30.50 in Calm     74% 0.00 in 0.00 W/m2
04:28 5.7 °F -0.8 °F 30.51 in Calm     74% 0.00 in 0.00 W/m2
04:34 5.4 °F -0.8 °F 30.51 in Calm     75% 0.00 in 0.00 W/m2
Country Meadow, Clay, NY, USA
Compliments of Weather Underground - 2 mb